sensor_id;sensor_type;location;lat;lon;timestamp;temperature;humidity
16907;DHT22;8570;52.380;4.654;2023-05-10T00:11:23;12.60;99.90
16907;DHT22;8570;52.380;4.654;2023-05-10T00:16:26;12.50;99.90
16907;DHT22;8570;52.380;4.654;2023-05-10T00:21:28;12.40;99.90
16907;DHT22;8570;52.380;4.654;2023-05-10T00:26:30;12.30;99.90
16907;DHT22;8570;52.380;4.654;2023-05-10T00:31:34;12.30;99.90
16907;DHT22;8570;52.380;4.654;2023-05-10T00:36:36;12.30;99.90
16907;DHT22;8570;52.380;4.654;2023-05-10T00:41:37;12.30;99.90
16907;DHT22;8570;52.380;4.654;2023-05-10T00:46:41;12.30;99.90
16907;DHT22;8570;52.380;4.654;2023-05-10T00:51:43;12.30;99.90
16907;DHT22;8570;52.380;4.654;2023-05-10T00:56:47;12.30;99.90
16907;DHT22;8570;52.380;4.654;2023-05-10T01:01:54;12.30;99.90
16907;DHT22;8570;52.380;4.654;2023-05-10T01:06:56;12.30;99.90
16907;DHT22;8570;52.380;4.654;2023-05-10T01:12:01;12.30;99.90
16907;DHT22;8570;52.380;4.654;2023-05-10T01:17:05;12.30;99.90
16907;DHT22;8570;52.380;4.654;2023-05-10T01:22:21;12.40;99.90
16907;DHT22;8570;52.380;4.654;2023-05-10T01:33:24;12.40;99.90
16907;DHT22;8570;52.380;4.654;2023-05-10T01:38:32;12.40;99.90
16907;DHT22;8570;52.380;4.654;2023-05-10T01:43:48;12.40;99.90
16907;DHT22;8570;52.380;4.654;2023-05-10T01:48:56;12.40;99.90
16907;DHT22;8570;52.380;4.654;2023-05-10T01:54:01;12.40;99.90
16907;DHT22;8570;52.380;4.654;2023-05-10T01:59:07;12.40;99.90
16907;DHT22;8570;52.380;4.654;2023-05-10T02:04:15;12.40;99.90
16907;DHT22;8570;52.380;4.654;2023-05-10T02:09:18;12.40;99.90
16907;DHT22;8570;52.380;4.654;2023-05-10T02:14:22;12.40;99.90
16907;DHT22;8570;52.380;4.654;2023-05-10T02:19:28;12.40;99.90
16907;DHT22;8570;52.380;4.654;2023-05-10T02:24:31;12.40;99.90
16907;DHT22;8570;52.380;4.654;2023-05-10T02:29:34;12.40;99.90
16907;DHT22;8570;52.380;4.654;2023-05-10T02:34:38;12.30;99.90
16907;DHT22;8570;52.380;4.654;2023-05-10T02:39:41;12.20;99.90
16907;DHT22;8570;52.380;4.654;2023-05-10T02:44:50;12.30;99.90
16907;DHT22;8570;52.380;4.654;2023-05-10T02:49:55;12.20;99.90
16907;DHT22;8570;52.380;4.654;2023-05-10T02:55:05;12.20;99.90
16907;DHT22;8570;52.380;4.654;2023-05-10T03:00:12;12.10;99.90
16907;DHT22;8570;52.380;4.654;2023-05-10T03:05:15;12.10;99.90
16907;DHT22;8570;52.380;4.654;2023-05-10T03:10:18;12.00;99.90
16907;DHT22;8570;52.380;4.654;2023-05-10T03:15:29;12.00;99.90
16907;DHT22;8570;52.380;4.654;2023-05-10T03:20:41;12.00;99.90
16907;DHT22;8570;52.380;4.654;2023-05-10T03:25:44;11.90;99.90
16907;DHT22;8570;52.380;4.654;2023-05-10T03:30:49;11.90;99.90
16907;DHT22;8570;52.380;4.654;2023-05-10T03:35:53;11.90;99.90
16907;DHT22;8570;52.380;4.654;2023-05-10T03:40:55;11.90;99.90
16907;DHT22;8570;52.380;4.654;2023-05-10T03:45:57;11.90;99.90
16907;DHT22;8570;52.380;4.654;2023-05-10T03:51:00;11.90;99.90
16907;DHT22;8570;52.380;4.654;2023-05-10T03:56:02;11.90;99.90
16907;DHT22;8570;52.380;4.654;2023-05-10T04:01:04;11.90;99.90
16907;DHT22;8570;52.380;4.654;2023-05-10T04:06:13;11.90;99.90
16907;DHT22;8570;52.380;4.654;2023-05-10T04:11:15;11.90;99.90
16907;DHT22;8570;52.380;4.654;2023-05-10T04:16:17;11.90;99.90
16907;DHT22;8570;52.380;4.654;2023-05-10T04:21:20;11.90;99.90
16907;DHT22;8570;52.380;4.654;2023-05-10T04:26:23;11.90;99.90
16907;DHT22;8570;52.380;4.654;2023-05-10T04:31:27;11.90;99.90
16907;DHT22;8570;52.380;4.654;2023-05-10T04:36:30;11.80;99.90
16907;DHT22;8570;52.380;4.654;2023-05-10T04:41:33;11.80;99.90
16907;DHT22;8570;52.380;4.654;2023-05-10T04:46:37;11.80;99.90
16907;DHT22;8570;52.380;4.654;2023-05-10T04:51:40;11.90;99.90
16907;DHT22;8570;52.380;4.654;2023-05-10T04:56:42;11.90;99.90
16907;DHT22;8570;52.380;4.654;2023-05-10T05:01:44;11.90;99.90
16907;DHT22;8570;52.380;4.654;2023-05-10T05:06:47;11.80;99.90
16907;DHT22;8570;52.380;4.654;2023-05-10T05:11:49;11.80;99.90
16907;DHT22;8570;52.380;4.654;2023-05-10T05:16:51;11.90;99.90
16907;DHT22;8570;52.380;4.654;2023-05-10T05:21:54;11.90;99.90
16907;DHT22;8570;52.380;4.654;2023-05-10T05:26:56;11.90;99.90
16907;DHT22;8570;52.380;4.654;2023-05-10T05:32:00;11.90;99.90
16907;DHT22;8570;52.380;4.654;2023-05-10T05:37:05;11.90;99.90
16907;DHT22;8570;52.380;4.654;2023-05-10T05:42:08;12.00;99.90
16907;DHT22;8570;52.380;4.654;2023-05-10T05:47:10;12.00;99.90
16907;DHT22;8570;52.380;4.654;2023-05-10T05:52:14;12.00;99.90
16907;DHT22;8570;52.380;4.654;2023-05-10T05:57:16;12.00;99.90
16907;DHT22;8570;52.380;4.654;2023-05-10T06:02:17;12.00;99.90
16907;DHT22;8570;52.380;4.654;2023-05-10T06:07:22;12.10;99.90
16907;DHT22;8570;52.380;4.654;2023-05-10T06:12:24;12.20;99.90
16907;DHT22;8570;52.380;4.654;2023-05-10T06:17:26;12.20;99.90
16907;DHT22;8570;52.380;4.654;2023-05-10T06:22:34;12.40;99.90
16907;DHT22;8570;52.380;4.654;2023-05-10T06:27:41;12.40;99.90
16907;DHT22;8570;52.380;4.654;2023-05-10T06:32:43;12.50;99.90
16907;DHT22;8570;52.380;4.654;2023-05-10T06:37:47;12.60;99.90
16907;DHT22;8570;52.380;4.654;2023-05-10T06:42:49;12.70;99.90
16907;DHT22;8570;52.380;4.654;2023-05-10T06:47:51;12.70;99.90
16907;DHT22;8570;52.380;4.654;2023-05-10T06:52:54;12.80;99.90
16907;DHT22;8570;52.380;4.654;2023-05-10T06:57:57;12.80;99.90
16907;DHT22;8570;52.380;4.654;2023-05-10T07:02:59;12.90;99.90
16907;DHT22;8570;52.380;4.654;2023-05-10T07:08:02;12.90;99.90
16907;DHT22;8570;52.380;4.654;2023-05-10T07:13:04;13.00;99.90
16907;DHT22;8570;52.380;4.654;2023-05-10T07:18:11;13.00;99.90
16907;DHT22;8570;52.380;4.654;2023-05-10T07:23:14;13.10;99.90
16907;DHT22;8570;52.380;4.654;2023-05-10T07:28:16;13.10;99.90
16907;DHT22;8570;52.380;4.654;2023-05-10T07:33:18;13.10;99.90
16907;DHT22;8570;52.380;4.654;2023-05-10T07:38:23;13.10;99.90
16907;DHT22;8570;52.380;4.654;2023-05-10T07:43:27;13.10;99.90
16907;DHT22;8570;52.380;4.654;2023-05-10T07:48:33;13.20;99.90
16907;DHT22;8570;52.380;4.654;2023-05-10T07:53:37;13.30;99.90
16907;DHT22;8570;52.380;4.654;2023-05-10T07:58:40;13.30;99.90
16907;DHT22;8570;52.380;4.654;2023-05-10T08:03:42;13.40;99.90
16907;DHT22;8570;52.380;4.654;2023-05-10T08:08:47;13.40;99.90
16907;DHT22;8570;52.380;4.654;2023-05-10T08:13:51;13.50;99.90
16907;DHT22;8570;52.380;4.654;2023-05-10T08:18:53;13.60;99.90
16907;DHT22;8570;52.380;4.654;2023-05-10T08:23:57;13.70;99.90
16907;DHT22;8570;52.380;4.654;2023-05-10T08:28:59;13.80;99.90
16907;DHT22;8570;52.380;4.654;2023-05-10T08:34:03;13.90;99.90
16907;DHT22;8570;52.380;4.654;2023-05-10T08:39:08;14.00;99.90
16907;DHT22;8570;52.380;4.654;2023-05-10T08:44:10;14.10;99.90
16907;DHT22;8570;52.380;4.654;2023-05-10T08:49:17;14.20;99.90
16907;DHT22;8570;52.380;4.654;2023-05-10T08:54:21;14.30;99.90
16907;DHT22;8570;52.380;4.654;2023-05-10T08:59:25;14.50;99.90
16907;DHT22;8570;52.380;4.654;2023-05-10T09:04:27;14.50;99.90
16907;DHT22;8570;52.380;4.654;2023-05-10T09:09:31;14.60;99.90
16907;DHT22;8570;52.380;4.654;2023-05-10T09:14:34;14.60;99.90
16907;DHT22;8570;52.380;4.654;2023-05-10T09:19:39;14.60;99.90
16907;DHT22;8570;52.380;4.654;2023-05-10T09:24:44;14.70;99.90
16907;DHT22;8570;52.380;4.654;2023-05-10T09:29:46;14.70;99.90
16907;DHT22;8570;52.380;4.654;2023-05-10T09:34:49;14.90;99.90
16907;DHT22;8570;52.380;4.654;2023-05-10T09:39:54;14.90;99.90
16907;DHT22;8570;52.380;4.654;2023-05-10T09:45:01;15.00;99.90
16907;DHT22;8570;52.380;4.654;2023-05-10T09:50:03;15.20;99.90
16907;DHT22;8570;52.380;4.654;2023-05-10T09:55:08;15.20;99.90
16907;DHT22;8570;52.380;4.654;2023-05-10T10:00:10;15.30;99.90
16907;DHT22;8570;52.380;4.654;2023-05-10T10:05:18;15.30;99.90
16907;DHT22;8570;52.380;4.654;2023-05-10T10:10:23;15.30;99.90
16907;DHT22;8570;52.380;4.654;2023-05-10T10:15:29;15.30;99.90
16907;DHT22;8570;52.380;4.654;2023-05-10T10:20:31;15.30;99.90
16907;DHT22;8570;52.380;4.654;2023-05-10T10:25:34;15.30;99.90
16907;DHT22;8570;52.380;4.654;2023-05-10T10:30:43;15.40;99.90
16907;DHT22;8570;52.380;4.654;2023-05-10T10:35:45;15.40;99.90
16907;DHT22;8570;52.380;4.654;2023-05-10T10:41:01;15.40;99.90
16907;DHT22;8570;52.380;4.654;2023-05-10T10:46:13;15.40;99.90
16907;DHT22;8570;52.380;4.654;2023-05-10T10:51:15;15.50;99.90
16907;DHT22;8570;52.380;4.654;2023-05-10T10:56:22;15.50;99.90
16907;DHT22;8570;52.380;4.654;2023-05-10T11:01:32;15.50;99.90
16907;DHT22;8570;52.380;4.654;2023-05-10T11:36:59;16.00;99.90
16907;DHT22;8570;52.380;4.654;2023-05-10T11:42:01;16.00;99.90
16907;DHT22;8570;52.380;4.654;2023-05-10T11:47:03;16.00;99.90
16907;DHT22;8570;52.380;4.654;2023-05-10T11:52:08;15.90;99.90
16907;DHT22;8570;52.380;4.654;2023-05-10T11:57:11;15.80;99.90
16907;DHT22;8570;52.380;4.654;2023-05-10T12:02:14;15.70;99.90
16907;DHT22;8570;52.380;4.654;2023-05-10T12:07:17;15.70;99.90
16907;DHT22;8570;52.380;4.654;2023-05-10T12:12:19;15.60;99.90
16907;DHT22;8570;52.380;4.654;2023-05-10T12:17:21;15.70;99.90
16907;DHT22;8570;52.380;4.654;2023-05-10T12:22:24;15.80;99.90
16907;DHT22;8570;52.380;4.654;2023-05-10T12:27:31;15.90;99.90
16907;DHT22;8570;52.380;4.654;2023-05-10T12:32:40;16.00;99.90
16907;DHT22;8570;52.380;4.654;2023-05-10T12:37:43;16.00;99.90
16907;DHT22;8570;52.380;4.654;2023-05-10T12:42:45;16.00;99.90
16907;DHT22;8570;52.380;4.654;2023-05-10T12:47:47;16.10;99.90
16907;DHT22;8570;52.380;4.654;2023-05-10T12:52:50;16.10;99.90
16907;DHT22;8570;52.380;4.654;2023-05-10T12:57:52;16.00;99.90
16907;DHT22;8570;52.380;4.654;2023-05-10T13:02:54;16.10;99.90
16907;DHT22;8570;52.380;4.654;2023-05-10T13:07:57;16.30;99.90
16907;DHT22;8570;52.380;4.654;2023-05-10T13:12:59;16.40;99.90
16907;DHT22;8570;52.380;4.654;2023-05-10T13:18:01;16.40;99.90
16907;DHT22;8570;52.380;4.654;2023-05-10T13:23:04;16.40;99.90
16907;DHT22;8570;52.380;4.654;2023-05-10T13:28:06;16.40;99.90
16907;DHT22;8570;52.380;4.654;2023-05-10T13:33:08;16.30;99.90
16907;DHT22;8570;52.380;4.654;2023-05-10T13:38:12;16.30;99.90
16907;DHT22;8570;52.380;4.654;2023-05-10T13:43:14;16.30;99.90
16907;DHT22;8570;52.380;4.654;2023-05-10T13:48:16;16.30;99.90
16907;DHT22;8570;52.380;4.654;2023-05-10T13:53:19;16.30;99.90
16907;DHT22;8570;52.380;4.654;2023-05-10T13:58:21;16.30;99.90
16907;DHT22;8570;52.380;4.654;2023-05-10T14:03:24;16.30;99.90
16907;DHT22;8570;52.380;4.654;2023-05-10T14:08:27;16.20;99.90
16907;DHT22;8570;52.380;4.654;2023-05-10T14:13:29;16.20;99.90
16907;DHT22;8570;52.380;4.654;2023-05-10T14:18:31;16.10;99.90
16907;DHT22;8570;52.380;4.654;2023-05-10T14:23:34;16.00;99.90
16907;DHT22;8570;52.380;4.654;2023-05-10T14:28:36;15.90;99.90
16907;DHT22;8570;52.380;4.654;2023-05-10T14:33:38;15.80;99.90
16907;DHT22;8570;52.380;4.654;2023-05-10T14:38:41;15.80;99.90
16907;DHT22;8570;52.380;4.654;2023-05-10T14:43:43;15.90;99.90
16907;DHT22;8570;52.380;4.654;2023-05-10T14:48:45;15.90;99.90
16907;DHT22;8570;52.380;4.654;2023-05-10T14:53:49;16.00;99.90
16907;DHT22;8570;52.380;4.654;2023-05-10T14:58:50;16.00;99.90
16907;DHT22;8570;52.380;4.654;2023-05-10T15:03:54;16.10;99.90
16907;DHT22;8570;52.380;4.654;2023-05-10T15:08:57;16.20;99.90
16907;DHT22;8570;52.380;4.654;2023-05-10T15:13:59;16.30;99.90
16907;DHT22;8570;52.380;4.654;2023-05-10T15:19:02;16.30;99.90
16907;DHT22;8570;52.380;4.654;2023-05-10T15:24:05;16.40;99.90
16907;DHT22;8570;52.380;4.654;2023-05-10T15:29:07;16.50;99.90
16907;DHT22;8570;52.380;4.654;2023-05-10T15:34:09;16.60;99.90
16907;DHT22;8570;52.380;4.654;2023-05-10T15:39:13;16.60;99.90
16907;DHT22;8570;52.380;4.654;2023-05-10T15:44:15;16.50;99.90
16907;DHT22;8570;52.380;4.654;2023-05-10T15:49:17;16.50;99.90
16907;DHT22;8570;52.380;4.654;2023-05-10T15:54:21;16.50;99.90
16907;DHT22;8570;52.380;4.654;2023-05-10T15:59:23;16.40;99.90
16907;DHT22;8570;52.380;4.654;2023-05-10T16:04:46;16.40;99.90
16907;DHT22;8570;52.380;4.654;2023-05-10T16:10:00;16.20;99.90
16907;DHT22;8570;52.380;4.654;2023-05-10T16:15:09;16.10;99.90
16907;DHT22;8570;52.380;4.654;2023-05-10T16:20:11;16.10;99.90
16907;DHT22;8570;52.380;4.654;2023-05-10T16:25:15;16.00;99.90
16907;DHT22;8570;52.380;4.654;2023-05-10T16:30:17;16.00;99.90
16907;DHT22;8570;52.380;4.654;2023-05-10T16:35:23;16.00;99.90
16907;DHT22;8570;52.380;4.654;2023-05-10T16:40:27;15.90;99.90
16907;DHT22;8570;52.380;4.654;2023-05-10T16:45:30;15.90;99.90
16907;DHT22;8570;52.380;4.654;2023-05-10T16:50:32;15.90;99.90
16907;DHT22;8570;52.380;4.654;2023-05-10T16:55:36;15.90;99.90
16907;DHT22;8570;52.380;4.654;2023-05-10T17:00:38;15.80;99.90
16907;DHT22;8570;52.380;4.654;2023-05-10T17:05:40;15.80;99.90
16907;DHT22;8570;52.380;4.654;2023-05-10T17:10:44;15.70;99.90
16907;DHT22;8570;52.380;4.654;2023-05-10T17:15:45;15.60;99.90
16907;DHT22;8570;52.380;4.654;2023-05-10T17:20:47;15.50;99.90
16907;DHT22;8570;52.380;4.654;2023-05-10T17:25:51;15.40;99.90
16907;DHT22;8570;52.380;4.654;2023-05-10T17:30:55;15.30;99.90
16907;DHT22;8570;52.380;4.654;2023-05-10T17:35:57;15.30;99.90
16907;DHT22;8570;52.380;4.654;2023-05-10T17:41:01;15.20;99.90
16907;DHT22;8570;52.380;4.654;2023-05-10T17:46:03;15.20;99.90
16907;DHT22;8570;52.380;4.654;2023-05-10T17:51:05;15.10;99.90
16907;DHT22;8570;52.380;4.654;2023-05-10T17:56:08;15.20;99.90
16907;DHT22;8570;52.380;4.654;2023-05-10T18:01:10;15.20;99.90
16907;DHT22;8570;52.380;4.654;2023-05-10T18:06:12;15.20;99.90
16907;DHT22;8570;52.380;4.654;2023-05-10T18:11:16;15.20;99.90
16907;DHT22;8570;52.380;4.654;2023-05-10T18:16:18;15.10;99.90
16907;DHT22;8570;52.380;4.654;2023-05-10T18:21:20;15.00;99.90
16907;DHT22;8570;52.380;4.654;2023-05-10T18:26:23;15.00;99.90
16907;DHT22;8570;52.380;4.654;2023-05-10T18:31:25;15.00;99.90
16907;DHT22;8570;52.380;4.654;2023-05-10T18:36:27;14.90;99.90
16907;DHT22;8570;52.380;4.654;2023-05-10T18:41:31;15.00;99.90
16907;DHT22;8570;52.380;4.654;2023-05-10T18:46:41;14.90;99.90
16907;DHT22;8570;52.380;4.654;2023-05-10T18:51:44;14.80;99.90
16907;DHT22;8570;52.380;4.654;2023-05-10T18:56:47;14.80;99.90
16907;DHT22;8570;52.380;4.654;2023-05-10T19:01:49;14.70;99.90
16907;DHT22;8570;52.380;4.654;2023-05-10T19:06:55;14.60;99.90
16907;DHT22;8570;52.380;4.654;2023-05-10T19:11:59;14.60;99.90
16907;DHT22;8570;52.380;4.654;2023-05-10T19:17:03;14.50;99.90
16907;DHT22;8570;52.380;4.654;2023-05-10T19:22:05;14.40;99.90
16907;DHT22;8570;52.380;4.654;2023-05-10T19:27:09;14.40;99.90
16907;DHT22;8570;52.380;4.654;2023-05-10T19:32:11;14.30;99.90
16907;DHT22;8570;52.380;4.654;2023-05-10T19:37:15;14.30;99.90
16907;DHT22;8570;52.380;4.654;2023-05-10T19:42:19;14.10;99.90
16907;DHT22;8570;52.380;4.654;2023-05-10T19:47:21;14.10;99.90
16907;DHT22;8570;52.380;4.654;2023-05-10T19:52:23;13.90;99.90
16907;DHT22;8570;52.380;4.654;2023-05-10T19:57:33;13.90;99.90
16907;DHT22;8570;52.380;4.654;2023-05-10T20:02:37;13.80;99.90
16907;DHT22;8570;52.380;4.654;2023-05-10T20:07:39;13.80;99.90
16907;DHT22;8570;52.380;4.654;2023-05-10T20:12:45;13.70;99.90
16907;DHT22;8570;52.380;4.654;2023-05-10T20:17:51;13.70;99.90
16907;DHT22;8570;52.380;4.654;2023-05-10T20:22:53;13.70;99.90
16907;DHT22;8570;52.380;4.654;2023-05-10T20:27:56;13.70;99.90
16907;DHT22;8570;52.380;4.654;2023-05-10T20:32:58;13.70;99.90
16907;DHT22;8570;52.380;4.654;2023-05-10T20:38:00;13.70;99.90
16907;DHT22;8570;52.380;4.654;2023-05-10T20:43:05;13.70;99.90
16907;DHT22;8570;52.380;4.654;2023-05-10T20:48:07;13.70;99.90
16907;DHT22;8570;52.380;4.654;2023-05-10T20:53:10;13.70;99.90
16907;DHT22;8570;52.380;4.654;2023-05-10T20:58:15;13.60;99.90
16907;DHT22;8570;52.380;4.654;2023-05-10T21:03:17;13.60;99.90
16907;DHT22;8570;52.380;4.654;2023-05-10T21:08:19;13.50;99.90
16907;DHT22;8570;52.380;4.654;2023-05-10T21:13:22;13.50;99.90
16907;DHT22;8570;52.380;4.654;2023-05-10T21:18:24;13.50;99.90
16907;DHT22;8570;52.380;4.654;2023-05-10T21:23:26;13.50;99.90
16907;DHT22;8570;52.380;4.654;2023-05-10T21:28:30;13.50;99.90
16907;DHT22;8570;52.380;4.654;2023-05-10T21:33:32;13.50;99.90
16907;DHT22;8570;52.380;4.654;2023-05-10T21:38:34;13.50;99.90
16907;DHT22;8570;52.380;4.654;2023-05-10T21:43:39;13.50;99.90
16907;DHT22;8570;52.380;4.654;2023-05-10T21:48:41;13.40;99.90
16907;DHT22;8570;52.380;4.654;2023-05-10T21:53:44;13.40;99.90
16907;DHT22;8570;52.380;4.654;2023-05-10T21:58:47;13.30;99.90
16907;DHT22;8570;52.380;4.654;2023-05-10T22:03:49;13.20;99.90
16907;DHT22;8570;52.380;4.654;2023-05-10T22:08:51;13.10;99.90
16907;DHT22;8570;52.380;4.654;2023-05-10T22:13:55;13.00;99.90
16907;DHT22;8570;52.380;4.654;2023-05-10T22:18:57;13.00;99.90
16907;DHT22;8570;52.380;4.654;2023-05-10T22:24:02;12.90;99.90
16907;DHT22;8570;52.380;4.654;2023-05-10T22:29:05;12.90;99.90
16907;DHT22;8570;52.380;4.654;2023-05-10T22:34:07;12.90;99.90
16907;DHT22;8570;52.380;4.654;2023-05-10T22:39:09;12.90;99.90
16907;DHT22;8570;52.380;4.654;2023-05-10T22:44:12;12.80;99.90
16907;DHT22;8570;52.380;4.654;2023-05-10T22:49:14;12.80;99.90
16907;DHT22;8570;52.380;4.654;2023-05-10T22:54:16;12.80;99.90
16907;DHT22;8570;52.380;4.654;2023-05-10T22:59:20;12.70;99.90
16907;DHT22;8570;52.380;4.654;2023-05-10T23:04:22;12.70;99.90
16907;DHT22;8570;52.380;4.654;2023-05-10T23:15:14;12.60;99.90
16907;DHT22;8570;52.380;4.654;2023-05-10T23:20:16;12.50;99.90
16907;DHT22;8570;52.380;4.654;2023-05-10T23:25:18;12.50;99.90
16907;DHT22;8570;52.380;4.654;2023-05-10T23:30:21;12.50;99.90
16907;DHT22;8570;52.380;4.654;2023-05-10T23:35:23;12.50;99.90
16907;DHT22;8570;52.380;4.654;2023-05-10T23:52:51;12.50;99.90
16907;DHT22;8570;52.380;4.654;2023-05-10T23:57:53;12.60;99.90
